Alamota, Kansas
Current Conditions -  °F | °C
As of 10:54 AM on Thursday 30 Oct 2014 (Local Time) from KGCK Reporting Station
Clear Clear  
Wind Chill: 59°   Ceiling: Unl
Heat Index: 59°   Visibility: 10mi
Dew Point: 33°   Wind: 13mph
Humidity: 38%   Direction: 350°N
Pressure: 30.27"   Gusts: NA
Location:  38.4812°N, 100.393°W
Report Text: KGCK 301554Z 35011KT 10SM CLR 15/01 A3027 RMK AO2 SLP243 T01500006
Loading
Personal Weather Stations






























Interactive Weather Map New forecast layout! Learn more

10-Day Weather Forecast

Advertisements
Track Severe Weather on mobile